Terrace, Canada
Current Conditions -  °F | °C
As of 12:00 AM on Thursday 23 Oct 2014 (Local Time) from CYXT Reporting Station
Light Rain Light Rain  
Wind Chill: 43°   Ceiling: 1000
Heat Index: 43°   Visibility: 3mi
Dew Point: 41°   Wind: 2mph
Humidity: 93%   Direction: NA
Pressure: 29.42"   Gusts: NA
Location:  54.52°N, 128.6°W
Report Text: CYXT 230700Z VRB02KT 3SM -RA BR SCT003 OVC010 06/05 A2942 RMK SF3ST5 SLP969
Loading
Personal Weather Stations






























Interactive Weather Map
Tropical Storm Tracking
New forecast layout! Learn more

10-Day Weather Forecast

Advertisements
Track Severe Weather on mobile